Time;durP1;ratioP1;P1;durP2;ratioP2;P2;SDS_P1;SDS_P2;PMS_P1;PMS_P2;Temp;Humidity;BMP_temperature;BMP_pressure;BME280_temperature;BME280_humidity;BME280_pressure;Samples;Min_cycle;Max_cycle;Signal;HPM_P1;HPM_P2
2021/09/29 00:00:51;;;;;;;11.75;2.00;;;14.10;72.30;;;;;;4993827;28;20115;-81
2021/09/29 00:03:18;;;;;;;9.57;2.03;;;14.20;72.30;;;;;;5011228;28;20121;-81
2021/09/29 00:05:45;;;;;;;14.13;1.85;;;14.10;72.20;;;;;;5010847;28;20042;-81
2021/09/29 00:08:12;;;;;;;8.18;1.90;;;14.20;72.20;;;;;;5011297;28;20046;-81
2021/09/29 00:10:40;;;;;;;6.93;2.08;;;14.10;72.20;;;;;;5011688;28;20049;-82
2021/09/29 00:13:08;;;;;;;11.32;2.00;;;14.20;72.20;;;;;;5011037;28;20100;-82
2021/09/29 00:15:35;;;;;;;12.40;2.10;;;14.10;72.20;;;;;;5010978;28;20049;-82
2021/09/29 00:18:03;;;;;;;10.52;2.33;;;14.20;72.20;;;;;;4989082;28;20089;-82
2021/09/29 00:20:30;;;;;;;10.10;2.20;;;14.10;72.20;;;;;;5010662;28;20092;-81
2021/09/29 00:22:57;;;;;;;7.25;2.30;;;14.10;72.30;;;;;;5011058;28;20045;-82
2021/09/29 00:25:24;;;;;;;11.90;2.25;;;14.10;72.40;;;;;;5011125;28;20116;-81
2021/09/29 00:27:51;;;;;;;8.60;1.95;;;14.20;72.70;;;;;;5010728;28;20494;-81
2021/09/29 00:30:19;;;;;;;7.38;1.95;;;14.20;73.00;;;;;;5010833;28;20046;-81
2021/09/29 00:32:46;;;;;;;14.90;2.65;;;14.10;73.10;;;;;;5010891;28;20050;-81
2021/09/29 00:35:14;;;;;;;8.23;1.92;;;14.10;73.50;;;;;;5009679;28;20096;-81
2021/09/29 00:37:42;;;;;;;9.75;2.03;;;14.10;73.60;;;;;;5011109;28;20104;-81
2021/09/29 00:40:10;;;;;;;11.85;1.90;;;14.00;73.70;;;;;;5010605;28;20049;-81
2021/09/29 00:42:37;;;;;;;10.85;2.42;;;14.00;73.70;;;;;;5010482;28;20072;-81
2021/09/29 00:45:05;;;;;;;10.43;3.60;;;14.00;73.80;;;;;;5010525;28;20054;-82
2021/09/29 00:47:32;;;;;;;9.48;2.17;;;14.00;74.10;;;;;;5010658;28;20049;-81
2021/09/29 00:49:59;;;;;;;10.77;2.20;;;13.90;74.30;;;;;;5010397;28;20054;-81
2021/09/29 00:52:27;;;;;;;7.53;1.77;;;13.90;74.30;;;;;;5010953;28;20061;-82
2021/09/29 00:54:55;;;;;;;9.25;2.40;;;13.90;74.50;;;;;;5010524;28;20173;-81
2021/09/29 00:57:22;;;;;;;5.82;1.73;;;13.90;74.70;;;;;;5010397;28;20045;-81
2021/09/29 00:59:49;;;;;;;9.95;1.98;;;13.90;74.90;;;;;;5010506;28;20560;-81
2021/09/29 01:02:19;;;;;;;10.60;2.40;;;13.90;75.10;;;;;;5010501;28;20112;-81
2021/09/29 01:04:47;;;;;;;10.18;1.95;;;13.90;75.20;;;;;;5010731;28;20064;-80
2021/09/29 01:07:20;;;;;;;7.85;2.63;;;13.90;75.50;;;;;;5010218;28;20050;-80
2021/09/29 01:10:03;;;;;;;7.10;1.80;;;13.90;75.60;;;;;;5010363;28;20123;-81
2021/09/29 01:12:43;;;;;;;8.27;1.60;;;13.80;75.80;;;;;;5010181;28;20046;-80
2021/09/29 01:15:34;;;;;;;10.82;2.15;;;13.80;76.10;;;;;;5010380;28;20050;-81
2021/09/29 01:18:07;;;;;;;7.75;1.40;;;13.80;76.30;;;;;;5010045;28;20046;-80
2021/09/29 01:20:47;;;;;;;10.40;1.75;;;13.80;76.50;;;;;;5010345;28;20050;-81
2021/09/29 01:24:05;;;;;;;10.73;2.15;;;13.70;76.60;;;;;;5010213;28;20104;-81
2021/09/29 01:26:36;;;;;;;8.10;1.67;;;13.70;76.80;;;;;;4928823;29;20111;-80
2021/09/29 01:29:06;;;;;;;8.52;2.28;;;13.70;76.90;;;;;;4928651;29;20051;-80
2021/09/29 01:31:34;;;;;;;9.00;1.95;;;13.70;76.90;;;;;;4929020;29;20105;-81
2021/09/29 01:34:03;;;;;;;11.95;1.65;;;13.70;77.00;;;;;;4929650;29;20099;-81
2021/09/29 01:36:30;;;;;;;12.13;1.88;;;13.70;77.10;;;;;;4925808;29;20059;-81
2021/09/29 01:38:58;;;;;;;7.53;1.90;;;13.70;77.50;;;;;;4925896;29;20064;-81
2021/09/29 01:41:28;;;;;;;7.75;1.73;;;13.70;77.70;;;;;;4929621;29;20063;-81
2021/09/29 01:43:57;;;;;;;8.43;2.00;;;13.70;77.90;;;;;;4927352;29;20131;-81
2021/09/29 01:46:26;;;;;;;6.63;1.58;;;13.70;78.10;;;;;;4926300;29;20052;-81
2021/09/29 01:49:02;;;;;;;10.10;1.70;;;13.70;78.30;;;;;;4929033;29;20051;-81
2021/09/29 01:51:31;;;;;;;10.48;1.85;;;13.70;78.40;;;;;;4929314;29;20051;-81
2021/09/29 01:54:01;;;;;;;8.15;1.85;;;13.70;78.50;;;;;;4929294;29;20596;-80
2021/09/29 01:56:28;;;;;;;12.73;2.15;;;13.70;78.70;;;;;;4932662;29;20103;-81
2021/09/29 01:58:55;;;;;;;9.80;1.80;;;13.60;78.80;;;;;;4930746;29;20110;-80
2021/09/29 02:01:23;;;;;;;6.65;1.90;;;13.60;79.00;;;;;;5004885;28;20053;-80
2021/09/29 02:03:50;;;;;;;7.55;1.30;;;13.70;79.10;;;;;;5013362;28;20042;-80
2021/09/29 02:06:17;;;;;;;9.13;2.10;;;13.60;79.10;;;;;;5013331;28;20212;-80
2021/09/29 02:08:43;;;;;;;6.65;1.73;;;13.60;79.10;;;;;;5013367;28;20480;-80
2021/09/29 02:11:10;;;;;;;8.07;1.85;;;13.60;79.00;;;;;;5013201;28;20057;-80
2021/09/29 02:13:37;;;;;;;5.57;1.45;;;13.60;79.00;;;;;;5013751;28;20515;-80
2021/09/29 02:16:04;;;;;;;5.97;1.80;;;13.60;79.00;;;;;;5012927;28;20046;-80
2021/09/29 02:18:31;;;;;;;4.80;1.23;;;13.60;79.00;;;;;;5013031;28;20041;-80
2021/09/29 02:20:58;;;;;;;6.68;1.33;;;13.50;79.00;;;;;;5013171;28;20046;-80
2021/09/29 02:23:25;;;;;;;9.65;1.45;;;13.50;79.00;;;;;;5013147;28;20105;-80
2021/09/29 02:25:53;;;;;;;6.85;1.60;;;13.50;79.10;;;;;;5013419;28;20084;-80
2021/09/29 02:28:20;;;;;;;10.30;1.92;;;13.50;79.00;;;;;;5013144;28;20050;-80
2021/09/29 02:30:47;;;;;;;8.35;1.60;;;13.50;79.10;;;;;;5012410;28;20057;-80
2021/09/29 02:33:13;;;;;;;6.03;1.23;;;13.50;79.20;;;;;;5012724;28;20120;-80
2021/09/29 02:35:40;;;;;;;7.28;1.30;;;13.50;79.20;;;;;;5012698;28;20042;-81
2021/09/29 02:38:07;;;;;;;8.43;1.77;;;13.50;79.30;;;;;;5012726;28;20502;-80
2021/09/29 02:40:34;;;;;;;10.68;1.95;;;13.50;79.30;;;;;;5013298;28;20054;-80
2021/09/29 02:43:01;;;;;;;12.73;1.77;;;13.50;79.30;;;;;;5012491;28;20042;-80
2021/09/29 02:45:28;;;;;;;7.35;1.48;;;13.50;79.30;;;;;;5012086;28;20173;-80
2021/09/29 02:47:55;;;;;;;14.05;1.80;;;13.50;79.40;;;;;;5012525;28;20092;-80
2021/09/29 02:50:21;;;;;;;6.55;1.50;;;13.50;79.50;;;;;;5012533;28;20442;-80
2021/09/29 02:52:48;;;;;;;7.50;1.75;;;13.50;79.60;;;;;;5013099;28;20458;-80
2021/09/29 02:55:15;;;;;;;9.35;1.90;;;13.50;79.70;;;;;;5012305;28;20050;-80
2021/09/29 02:57:42;;;;;;;11.40;1.70;;;13.50;79.70;;;;;;5011839;28;20100;-80
2021/09/29 03:00:10;;;;;;;8.10;1.70;;;13.50;79.70;;;;;;5011763;28;20046;-80
2021/09/29 03:02:37;;;;;;;7.63;1.60;;;13.50;79.70;;;;;;5012337;28;20097;-80
2021/09/29 03:05:04;;;;;;;8.55;1.60;;;13.50;79.70;;;;;;5012360;28;20046;-80
2021/09/29 03:07:31;;;;;;;5.47;1.42;;;13.50;79.70;;;;;;5010702;28;20108;-79
2021/09/29 03:09:58;;;;;;;13.95;1.88;;;13.50;79.70;;;;;;5012081;28;20525;-79
2021/09/29 03:12:25;;;;;;;11.45;1.80;;;13.50;79.70;;;;;;4990595;28;20103;-81
2021/09/29 03:14:52;;;;;;;11.77;1.67;;;13.50;79.80;;;;;;5011963;28;20077;-80
2021/09/29 03:17:19;;;;;;;11.38;1.70;;;13.50;79.90;;;;;;4996544;28;20506;-81
2021/09/29 03:19:45;;;;;;;12.80;2.13;;;13.50;79.90;;;;;;5012526;28;20057;-83
2021/09/29 03:22:12;;;;;;;7.75;1.77;;;13.50;80.10;;;;;;5011870;28;20498;-83
2021/09/29 03:24:39;;;;;;;12.18;2.28;;;13.50;80.30;;;;;;5011807;28;20046;-84
2021/09/29 03:27:07;;;;;;;9.02;1.90;;;13.50;80.50;;;;;;5011689;28;20042;-83
2021/09/29 03:29:34;;;;;;;5.07;1.52;;;13.50;80.70;;;;;;5011757;28;20498;-83
2021/09/29 03:32:01;;;;;;;6.00;1.23;;;13.40;81.00;;;;;;5011875;28;20053;-84
2021/09/29 03:34:28;;;;;;;9.13;1.70;;;13.40;81.20;;;;;;5012275;28;20491;-82
2021/09/29 03:36:55;;;;;;;5.22;1.15;;;13.40;81.30;;;;;;5011554;28;20495;-81
2021/09/29 03:39:22;;;;;;;5.00;1.00;;;13.40;81.40;;;;;;5011562;28;20104;-82
2021/09/29 03:41:49;;;;;;;4.63;1.00;;;13.40;81.30;;;;;;5011561;28;20135;-81
2021/09/29 03:44:16;;;;;;;6.32;1.27;;;13.40;81.30;;;;;;5011252;28;20584;-81
2021/09/29 03:46:43;;;;;;;6.55;1.05;;;13.40;81.40;;;;;;5012090;28;20050;-81
2021/09/29 03:49:10;;;;;;;3.10;0.80;;;13.30;81.30;;;;;;5011497;28;20049;-81
2021/09/29 03:51:37;;;;;;;5.25;0.95;;;13.30;81.20;;;;;;5011415;28;20057;-81
2021/09/29 03:54:04;;;;;;;5.63;1.00;;;13.30;81.10;;;;;;5011356;28;20092;-81
2021/09/29 03:56:31;;;;;;;4.53;0.90;;;13.30;81.10;;;;;;5011643;28;20084;-81
2021/09/29 03:58:58;;;;;;;4.40;0.77;;;13.30;81.10;;;;;;5011229;28;20046;-81
2021/09/29 04:01:25;;;;;;;3.58;0.93;;;13.30;81.10;;;;;;5011724;28;20104;-83
2021/09/29 04:03:51;;;;;;;6.75;0.98;;;13.20;81.10;;;;;;5011227;28;20537;-83
2021/09/29 04:06:18;;;;;;;3.63;0.90;;;13.20;81.10;;;;;;5011094;28;20049;-83
2021/09/29 04:08:45;;;;;;;5.47;0.70;;;13.20;81.20;;;;;;5011278;28;20046;-83
2021/09/29 04:11:12;;;;;;;3.78;0.93;;;13.20;81.20;;;;;;5011090;28;20148;-82
2021/09/29 04:13:39;;;;;;;4.95;1.00;;;13.20;81.20;;;;;;5011630;28;20050;-83
2021/09/29 04:16:06;;;;;;;4.10;1.10;;;13.20;81.20;;;;;;5011031;28;20548;-82
2021/09/29 04:18:33;;;;;;;6.90;1.30;;;13.20;81.20;;;;;;5011093;28;20068;-83
2021/09/29 04:21:00;;;;;;;5.03;1.00;;;13.20;81.20;;;;;;5010945;28;20042;-83
2021/09/29 04:23:27;;;;;;;4.13;1.10;;;13.20;81.20;;;;;;5010993;28;20111;-83
2021/09/29 04:25:54;;;;;;;3.63;1.00;;;13.20;81.30;;;;;;5011158;28;20053;-83
2021/09/29 04:28:21;;;;;;;5.28;0.98;;;13.20;81.30;;;;;;5009980;28;20115;-82
2021/09/29 04:30:48;;;;;;;2.50;0.82;;;13.20;81.40;;;;;;5010658;28;20054;-83
2021/09/29 04:33:16;;;;;;;3.03;0.77;;;13.10;81.40;;;;;;5010643;28;20054;-82
2021/09/29 04:35:42;;;;;;;6.35;0.80;;;13.20;81.50;;;;;;5010692;28;20049;-83
2021/09/29 04:38:09;;;;;;;5.47;0.90;;;13.10;81.60;;;;;;5010671;28;20053;-82
2021/09/29 04:40:36;;;;;;;4.97;0.90;;;13.10;81.70;;;;;;5010895;28;20054;-83
2021/09/29 04:43:03;;;;;;;2.50;0.70;;;13.10;81.70;;;;;;5010686;28;20054;-81
2021/09/29 04:45:30;;;;;;;2.92;0.68;;;13.10;81.70;;;;;;5010413;28;20054;-82
2021/09/29 04:47:57;;;;;;;2.92;0.90;;;13.10;81.70;;;;;;5010505;28;20054;-83
2021/09/29 04:50:24;;;;;;;3.25;0.80;;;13.10;81.70;;;;;;5010623;28;20045;-83
2021/09/29 04:52:51;;;;;;;3.63;0.77;;;13.10;81.70;;;;;;5010962;28;20128;-83
2021/09/29 04:55:18;;;;;;;3.13;0.70;;;13.00;81.60;;;;;;5010030;28;20395;-82
2021/09/29 04:57:45;;;;;;;2.40;0.60;;;13.00;81.60;;;;;;5010560;28;20054;-83
2021/09/29 05:00:12;;;;;;;2.95;0.60;;;13.00;81.60;;;;;;5010573;28;20565;-83
2021/09/29 05:02:44;;;;;;;6.75;0.70;;;13.00;81.60;;;;;;5010381;28;20076;-82
2021/09/29 05:05:12;;;;;;;2.72;0.60;;;13.00;81.60;;;;;;5010459;28;20129;-83
2021/09/29 05:07:40;;;;;;;2.17;0.52;;;12.90;81.60;;;;;;5010822;28;20104;-83
2021/09/29 05:10:22;;;;;;;1.63;0.60;;;13.00;81.50;;;;;;5010009;28;20493;-84
2021/09/29 05:12:51;;;;;;;2.25;0.60;;;13.00;81.60;;;;;;5010394;28;20046;-83
2021/09/29 05:15:18;;;;;;;3.20;0.73;;;12.90;81.60;;;;;;4988724;28;20057;-83
2021/09/29 05:17:45;;;;;;;6.07;0.80;;;13.00;81.60;;;;;;5010550;28;20045;-83
2021/09/29 05:20:12;;;;;;;2.60;0.70;;;13.00;81.70;;;;;;5010234;28;20096;-83
2021/09/29 05:22:39;;;;;;;5.20;0.90;;;13.00;81.70;;;;;;5013820;28;20046;-83
2021/09/29 05:25:06;;;;;;;3.95;1.00;;;12.90;81.70;;;;;;5013877;28;20046;-84
2021/09/29 05:27:33;;;;;;;7.15;1.17;;;12.90;81.70;;;;;;5013998;28;20049;-83
2021/09/29 05:30:05;;;;;;;4.43;0.95;;;12.90;81.80;;;;;;5014038;28;20478;-83
2021/09/29 05:32:32;;;;;;;3.90;1.00;;;12.90;81.90;;;;;;5013961;28;20045;-83
2021/09/29 05:34:58;;;;;;;3.90;0.90;;;12.90;81.90;;;;;;5014294;28;20050;-84
2021/09/29 05:37:25;;;;;;;3.03;0.80;;;12.90;82.00;;;;;;5014155;28;20127;-84
2021/09/29 05:39:52;;;;;;;4.88;1.00;;;12.90;82.00;;;;;;5013457;28;20045;-83
2021/09/29 05:42:19;;;;;;;6.05;0.82;;;12.90;82.10;;;;;;5013715;28;20132;-83
2021/09/29 05:44:46;;;;;;;4.80;1.10;;;12.90;82.20;;;;;;5013828;28;20510;-83
2021/09/29 05:47:13;;;;;;;4.97;1.17;;;12.90;82.20;;;;;;5012781;28;20054;-83
2021/09/29 05:49:40;;;;;;;3.90;0.70;;;12.90;82.30;;;;;;5014690;28;20042;-83
2021/09/29 05:52:07;;;;;;;2.28;0.63;;;12.90;82.30;;;;;;5014013;28;20116;-83
2021/09/29 05:54:35;;;;;;;3.47;0.70;;;12.90;82.30;;;;;;5014408;28;20049;-83
2021/09/29 05:57:02;;;;;;;1.45;0.55;;;12.90;82.30;;;;;;5014649;28;20469;-84
2021/09/29 05:59:29;;;;;;;4.63;0.90;;;12.90;82.30;;;;;;5014348;28;20037;-82
2021/09/29 06:01:56;;;;;;;4.90;1.27;;;12.90;82.20;;;;;;5014601;28;20061;-83
2021/09/29 06:04:23;;;;;;;2.65;0.60;;;12.80;82.20;;;;;;5014937;28;20045;-82
2021/09/29 06:06:51;;;;;;;3.53;0.70;;;12.80;82.20;;;;;;5014179;28;20060;-82
2021/09/29 06:09:19;;;;;;;3.92;0.77;;;12.80;82.20;;;;;;5014212;28;20043;-82
2021/09/29 06:11:45;;;;;;;1.95;0.60;;;12.70;82.20;;;;;;5014761;28;20104;-83
2021/09/29 06:14:14;;;;;;;3.53;0.77;;;12.70;82.20;;;;;;5014245;28;20050;-83
2021/09/29 06:16:47;;;;;;;2.03;0.55;;;12.80;82.30;;;;;;5014769;28;20050;-83
2021/09/29 06:19:16;;;;;;;2.00;0.50;;;12.70;82.30;;;;;;5014300;28;20088;-82
2021/09/29 06:21:44;;;;;;;2.72;0.70;;;12.70;82.20;;;;;;5013988;28;20058;-82
2021/09/29 06:24:11;;;;;;;2.63;0.55;;;12.70;82.20;;;;;;5014286;28;20053;-82
2021/09/29 06:26:38;;;;;;;4.53;1.00;;;12.60;82.20;;;;;;5014115;28;20103;-83
2021/09/29 06:29:05;;;;;;;4.05;0.55;;;12.60;82.20;;;;;;5013997;28;20107;-82
2021/09/29 06:31:32;;;;;;;2.90;0.70;;;12.60;82.20;;;;;;5014774;28;20054;-83
2021/09/29 06:33:59;;;;;;;2.33;0.60;;;12.60;82.20;;;;;;5012872;28;20050;-82
2021/09/29 06:36:26;;;;;;;2.22;0.50;;;12.60;82.30;;;;;;5013354;28;20501;-83
2021/09/29 06:38:53;;;;;;;3.72;0.70;;;12.60;82.30;;;;;;5013641;28;20069;-82
2021/09/29 06:41:20;;;;;;;1.55;0.57;;;12.60;82.30;;;;;;5013768;28;20057;-82
2021/09/29 06:43:46;;;;;;;2.80;0.60;;;12.60;82.30;;;;;;5010032;28;20092;-82
2021/09/29 06:46:13;;;;;;;8.35;1.10;;;12.60;82.40;;;;;;5013817;28;20058;-82
2021/09/29 06:48:42;;;;;;;3.47;0.70;;;12.60;82.50;;;;;;5013643;28;20423;-81
2021/09/29 06:51:09;;;;;;;2.35;0.40;;;12.60;82.60;;;;;;5013097;28;20049;-82
2021/09/29 06:53:36;;;;;;;6.45;0.80;;;12.50;82.70;;;;;;5013784;28;20054;-82
2021/09/29 06:56:05;;;;;;;4.25;0.68;;;12.50;82.70;;;;;;5013755;28;20108;-81
2021/09/29 06:58:33;;;;;;;4.05;0.68;;;12.50;82.70;;;;;;5011918;28;20461;-81
2021/09/29 07:01:00;;;;;;;5.47;0.63;;;12.50;82.70;;;;;;5013450;28;20621;-81
2021/09/29 07:03:28;;;;;;;3.45;0.90;;;12.50;82.70;;;;;;5013489;28;20050;-81
2021/09/29 07:05:56;;;;;;;5.00;0.80;;;12.50;82.80;;;;;;5012721;28;20041;-81
2021/09/29 07:08:23;;;;;;;2.10;0.50;;;12.50;82.80;;;;;;5013265;28;20049;-81
2021/09/29 07:10:51;;;;;;;5.20;0.68;;;12.50;82.80;;;;;;5013765;28;20057;-82
2021/09/29 07:13:19;;;;;;;6.13;0.82;;;12.50;82.80;;;;;;5012848;28;20056;-81
2021/09/29 07:15:45;;;;;;;5.40;0.95;;;12.50;82.80;;;;;;5013264;28;20096;-81
2021/09/29 07:18:14;;;;;;;2.42;0.75;;;12.60;82.80;;;;;;5013215;28;20518;-81
2021/09/29 07:20:41;;;;;;;5.10;0.70;;;12.60;82.70;;;;;;5012445;28;20112;-82
2021/09/29 07:23:08;;;;;;;5.00;0.75;;;12.60;82.70;;;;;;5013265;28;20050;-82
2021/09/29 07:25:37;;;;;;;7.72;0.80;;;12.60;82.70;;;;;;5013725;28;20443;-81
2021/09/29 07:28:06;;;;;;;8.63;0.93;;;12.60;82.70;;;;;;5012595;28;20065;-81
2021/09/29 07:30:34;;;;;;;14.23;0.90;;;12.60;82.70;;;;;;4991177;28;20527;-81
2021/09/29 07:33:03;;;;;;;6.50;1.15;;;12.60;82.70;;;;;;5013167;28;20076;-82
2021/09/29 07:35:31;;;;;;;4.22;0.93;;;12.70;82.70;;;;;;5012197;28;20042;-81
2021/09/29 07:37:57;;;;;;;5.15;1.00;;;12.60;82.60;;;;;;5012710;28;20573;-81
2021/09/29 07:40:26;;;;;;;4.68;0.88;;;12.60;82.60;;;;;;5013081;28;20514;-81
2021/09/29 07:42:53;;;;;;;5.30;0.98;;;12.70;82.60;;;;;;5010688;28;20478;-81
2021/09/29 07:45:19;;;;;;;6.75;0.77;;;12.70;82.60;;;;;;5013358;28;20050;-80
2021/09/29 07:47:46;;;;;;;5.43;0.93;;;12.70;82.70;;;;;;4995833;28;20088;-81
2021/09/29 07:50:16;;;;;;;2.05;0.63;;;12.70;82.90;;;;;;4992687;28;20102;-80
2021/09/29 07:52:44;;;;;;;8.63;0.88;;;12.70;83.00;;;;;;4996496;28;20061;-81
2021/09/29 07:55:12;;;;;;;7.32;1.05;;;12.70;83.00;;;;;;4996489;28;20093;-81
2021/09/29 07:57:42;;;;;;;5.53;1.30;;;12.70;83.10;;;;;;4996668;28;20121;-80
2021/09/29 08:00:10;;;;;;;4.57;0.95;;;12.80;83.20;;;;;;4996245;28;20045;-81
2021/09/29 08:02:37;;;;;;;10.65;1.60;;;12.80;83.20;;;;;;4976951;28;20497;-81
2021/09/29 08:05:05;;;;;;;6.30;1.25;;;12.90;83.20;;;;;;4993918;28;20050;-80
2021/09/29 08:07:31;;;;;;;5.82;1.15;;;12.90;83.20;;;;;;4996158;28;20076;-81
2021/09/29 08:09:59;;;;;;;8.85;1.05;;;13.00;83.00;;;;;;5002344;28;20518;-81
2021/09/29 08:12:26;;;;;;;8.38;1.77;;;13.10;83.00;;;;;;5002849;28;20427;-81
2021/09/29 08:14:52;;;;;;;11.57;1.10;;;13.10;83.00;;;;;;4996152;28;20108;-81
2021/09/29 08:17:20;;;;;;;10.35;1.23;;;13.20;82.30;;;;;;4991990;28;20096;-80
2021/09/29 08:19:47;;;;;;;5.57;1.05;;;13.20;82.00;;;;;;4991745;28;20053;-81
2021/09/29 08:22:14;;;;;;;6.72;1.30;;;13.30;81.90;;;;;;4990524;28;20050;-80
2021/09/29 08:27:16;;;;;;;5.50;1.02;;;13.30;80.90;;;;;;5004868;28;20449;-80
2021/09/29 08:32:38;;;;;;;8.98;1.30;;;13.40;80.40;;;;;;4992611;28;20092;-81
2021/09/29 08:43:09;;;;;;;9.43;1.20;;;13.50;79.40;;;;;;4995976;28;20078;-80
2021/09/29 08:45:47;;;;;;;5.60;1.00;;;13.60;79.30;;;;;;4995800;28;20054;-80
2021/09/29 09:14:44;;;;;;;7.10;1.23;;;13.80;77.40;;;;;;4995463;28;20569;-79
2021/09/29 09:17:04;;;;;;;9.85;1.23;;;14.10;73.00;;;;;;5006387;28;20046;-80
2021/09/29 09:19:31;;;;;;;6.82;1.02;;;14.20;72.80;;;;;;4991161;28;20101;-80
2021/09/29 09:22:02;;;;;;;4.10;0.98;;;14.30;73.60;;;;;;4995365;28;20093;-80
2021/09/29 09:24:31;;;;;;;7.82;1.38;;;14.40;74.00;;;;;;4995306;28;20105;-80
2021/09/29 09:27:09;;;;;;;5.95;1.30;;;14.40;74.10;;;;;;4995251;28;20049;-80
2021/09/29 09:29:47;;;;;;;8.77;1.20;;;14.50;74.00;;;;;;4993375;28;20101;-80
2021/09/29 09:32:16;;;;;;;7.25;1.23;;;14.60;72.90;;;;;;4991242;28;20104;-79
2021/09/29 09:34:44;;;;;;;6.85;0.98;;;14.70;71.90;;;;;;4995341;28;20054;-79
2021/09/29 09:37:14;;;;;;;5.60;0.82;;;14.80;72.90;;;;;;4994952;28;20590;-80
2021/09/29 09:39:43;;;;;;;5.22;0.88;;;14.90;72.10;;;;;;4995092;28;20054;-80
2021/09/29 09:42:11;;;;;;;6.75;1.30;;;14.90;71.80;;;;;;4995361;28;20052;-80
2021/09/29 09:44:42;;;;;;;7.05;1.15;;;15.00;71.70;;;;;;4993235;28;20050;-80
2021/09/29 09:47:15;;;;;;;5.90;0.93;;;15.10;70.30;;;;;;4991818;28;20180;-81
2021/09/29 09:49:46;;;;;;;7.10;1.50;;;15.20;70.50;;;;;;4995352;28;20096;-81
2021/09/29 09:52:14;;;;;;;4.97;1.67;;;15.30;70.50;;;;;;4995071;28;20054;-80
2021/09/29 09:54:42;;;;;;;6.43;0.90;;;15.40;69.40;;;;;;4995218;28;20046;-79
2021/09/29 09:57:21;;;;;;;7.28;1.10;;;15.50;69.30;;;;;;4995102;28;20092;-80
2021/09/29 09:59:50;;;;;;;8.20;0.90;;;15.70;68.80;;;;;;4994378;28;20046;-80
2021/09/29 10:02:17;;;;;;;7.68;1.00;;;15.80;69.20;;;;;;4991081;28;20050;-80
2021/09/29 10:04:45;;;;;;;4.35;1.10;;;15.90;68.40;;;;;;4995102;28;20101;-81
2021/09/29 10:07:13;;;;;;;4.18;0.75;;;16.00;67.00;;;;;;4995313;28;20582;-80
2021/09/29 10:12:20;;;;;;;6.47;0.98;;;16.30;65.80;;;;;;4998268;28;20044;-79
2021/09/29 10:15:10;;;;;;;5.75;1.10;;;16.40;65.20;;;;;;4997369;28;20100;-80
2021/09/29 10:28:43;;;;;;;6.43;1.00;;;16.60;60.60;;;;;;4993512;28;20050;-79
2021/09/29 10:31:26;;;;;;;3.72;1.02;;;16.60;61.60;;;;;;4998036;28;20046;-79
2021/09/29 10:34:03;;;;;;;6.68;0.90;;;16.50;61.20;;;;;;4997410;28;20541;-81
2021/09/29 10:44:58;;;;;;;3.20;1.07;;;16.70;61.20;;;;;;4993932;28;20503;-80
2021/09/29 11:10:06;;;;;;;4.47;0.70;;;17.00;58.20;;;;;;4997533;28;20046;-81
2021/09/29 11:29:52;;;;;;;2.20;0.50;;;17.40;55.60;;;;;;4993147;28;20042;-79
2021/09/29 11:32:48;;;;;;;5.68;0.77;;;17.30;55.20;;;;;;4993065;28;20091;-79
2021/09/29 11:35:21;;;;;;;5.53;0.60;;;17.20;56.00;;;;;;5008194;28;20049;-79
2021/09/29 12:09:15;;;;;;;6.60;1.33;;;17.30;56.50;;;;;;4911529;29;20052;-79
2021/09/29 12:11:53;;;;;;;6.65;0.90;;;17.30;56.70;;;;;;4898273;29;20048;-79
2021/09/29 12:14:21;;;;;;;5.20;0.90;;;17.30;56.80;;;;;;4896542;29;20138;-79
2021/09/29 12:16:49;;;;;;;3.92;0.85;;;17.40;57.10;;;;;;4908735;29;20056;-79
2021/09/29 12:19:33;;;;;;;3.03;0.77;;;17.40;56.60;;;;;;4911631;29;20173;-79
2021/09/29 12:22:05;;;;;;;4.22;1.13;;;17.50;56.50;;;;;;4928083;29;20122;-79
2021/09/29 12:24:37;;;;;;;4.63;1.00;;;17.60;56.00;;;;;;4930289;29;20055;-79
2021/09/29 12:27:05;;;;;;;4.78;0.90;;;17.70;56.90;;;;;;4986105;28;20483;-79
2021/09/29 12:29:36;;;;;;;9.27;1.00;;;17.70;55.80;;;;;;4974045;28;20574;-79
2021/09/29 12:33:07;;;;;;;6.45;0.80;;;17.90;56.70;;;;;;4973364;28;20697;-79
2021/09/29 12:37:40;;;;;;;4.20;0.97;;;18.00;57.20;;;;;;4992034;28;20470;-82
2021/09/29 12:40:07;;;;;;;3.55;0.93;;;18.10;56.00;;;;;;4995277;28;20042;-80
2021/09/29 12:42:39;;;;;;;6.88;0.90;;;18.20;55.10;;;;;;4995634;28;20050;-82
2021/09/29 12:45:07;;;;;;;6.45;0.93;;;18.20;53.90;;;;;;4996005;28;20042;-81
2021/09/29 12:47:38;;;;;;;3.45;0.75;;;18.20;52.50;;;;;;4993176;28;20053;-80
2021/09/29 12:50:12;;;;;;;3.67;0.63;;;18.20;53.00;;;;;;4993578;28;20133;-79
2021/09/29 12:52:48;;;;;;;4.45;0.82;;;18.00;52.60;;;;;;4995707;28;20090;-79
2021/09/29 12:55:30;;;;;;;5.82;0.73;;;18.00;52.60;;;;;;4995247;28;20113;-80
2021/09/29 12:57:57;;;;;;;5.40;0.80;;;18.00;53.10;;;;;;4995815;28;20415;-79
2021/09/29 13:00:24;;;;;;;4.28;0.82;;;17.90;53.10;;;;;;4995665;28;20105;-79
2021/09/29 13:02:51;;;;;;;4.22;0.80;;;17.90;54.20;;;;;;4995306;28;20046;-79
2021/09/29 13:05:18;;;;;;;3.83;0.80;;;17.90;53.00;;;;;;4991529;28;20054;-79
2021/09/29 13:07:45;;;;;;;5.07;0.93;;;17.90;54.30;;;;;;4995644;28;20120;-79
2021/09/29 13:10:12;;;;;;;9.15;1.10;;;17.80;53.80;;;;;;4995285;28;20050;-79
2021/09/29 13:12:39;;;;;;;6.18;0.95;;;17.80;54.50;;;;;;4995439;28;20058;-79
2021/09/29 13:15:07;;;;;;;7.22;1.13;;;17.70;53.60;;;;;;4995606;28;20100;-79
2021/09/29 13:17:33;;;;;;;4.57;0.80;;;17.70;53.90;;;;;;4993058;28;20073;-79
2021/09/29 13:20:02;;;;;;;5.72;0.90;;;17.80;54.50;;;;;;4993193;28;20069;-79
2021/09/29 13:22:31;;;;;;;6.95;1.10;;;17.80;55.10;;;;;;4995568;28;20401;-79
2021/09/29 13:25:22;;;;;;;5.82;0.93;;;17.80;53.90;;;;;;4995300;28;20058;-79
2021/09/29 13:38:50;;;;;;;4.97;0.80;;;17.90;55.10;;;;;;4994387;28;20453;-79
2021/09/29 13:41:16;;;;;;;3.47;0.77;;;17.90;55.50;;;;;;4991348;28;20105;-79
2021/09/29 13:43:43;;;;;;;8.23;0.93;;;17.90;53.80;;;;;;4998151;28;20058;-79
2021/09/29 13:46:10;;;;;;;8.90;1.02;;;18.10;54.10;;;;;;4998838;28;20046;-79
2021/09/29 13:48:37;;;;;;;3.80;0.70;;;18.20;54.00;;;;;;4998981;28;20052;-79
2021/09/29 13:51:04;;;;;;;8.88;1.13;;;18.20;54.10;;;;;;4998778;28;20185;-79
2021/09/29 13:53:32;;;;;;;3.95;0.85;;;18.10;53.30;;;;;;4995599;28;20046;-79
2021/09/29 13:56:02;;;;;;;1.88;0.60;;;18.10;52.90;;;;;;4996574;28;20503;-80
2021/09/29 14:31:37;;;;;;;10.57;1.20;;;17.40;56.80;;;;;;4976700;28;20098;-80
2021/09/29 14:34:04;;;;;;;8.27;0.93;;;17.40;57.40;;;;;;4982685;28;20062;-79
2021/09/29 14:36:33;;;;;;;5.70;0.85;;;17.40;57.30;;;;;;4981394;28;20055;-80
2021/09/29 14:39:00;;;;;;;3.38;0.70;;;17.40;56.50;;;;;;4975952;28;20054;-79
2021/09/29 14:41:27;;;;;;;4.22;0.60;;;17.30;56.70;;;;;;4972408;28;20094;-80
2021/09/29 14:43:54;;;;;;;4.00;0.88;;;17.10;57.10;;;;;;4974388;28;20051;-80
2021/09/29 14:46:22;;;;;;;7.70;0.95;;;17.10;57.50;;;;;;4976622;28;20047;-80
2021/09/29 14:48:49;;;;;;;10.43;0.95;;;17.00;57.70;;;;;;4975524;28;20567;-80
2021/09/29 14:51:16;;;;;;;8.98;1.48;;;16.90;58.00;;;;;;4975313;28;20051;-80
2021/09/29 14:53:48;;;;;;;8.10;1.00;;;16.80;58.30;;;;;;4973818;28;20094;-80
2021/09/29 14:56:17;;;;;;;3.58;0.77;;;16.80;58.60;;;;;;4971881;28;20129;-79
2021/09/29 14:58:45;;;;;;;6.30;1.30;;;16.60;59.50;;;;;;4975710;28;20051;-79
2021/09/29 15:01:12;;;;;;;6.78;0.95;;;16.60;59.50;;;;;;4975363;28;20105;-79
2021/09/29 15:03:40;;;;;;;3.28;0.65;;;16.50;59.70;;;;;;4975472;28;20511;-79
2021/09/29 15:06:08;;;;;;;4.25;1.10;;;16.50;60.10;;;;;;4974954;28;20045;-79
2021/09/29 15:08:39;;;;;;;7.20;1.23;;;16.40;59.90;;;;;;4984952;28;20050;-79
2021/09/29 15:11:08;;;;;;;4.75;1.08;;;16.40;59.80;;;;;;4995317;28;20571;-79
2021/09/29 15:13:49;;;;;;;6.63;1.30;;;16.30;60.00;;;;;;4997274;28;20054;-79
2021/09/29 15:16:33;;;;;;;3.63;0.90;;;16.20;60.20;;;;;;4997963;28;20050;-79
2021/09/29 15:22:10;;;;;;;3.33;0.80;;;16.00;59.50;;;;;;4997104;28;20042;-80
2021/09/29 15:47:10;;;;;;;4.60;0.85;;;15.60;60.90;;;;;;4992348;28;20080;-79
2021/09/29 16:03:25;;;;;;;5.13;1.05;;;15.50;60.50;;;;;;4992418;28;20047;-80
2021/09/29 16:08:00;;;;;;;6.53;1.13;;;15.50;60.10;;;;;;4996237;28;20506;-79
2021/09/29 16:11:53;;;;;;;5.82;1.08;;;15.50;59.70;;;;;;5006496;28;20061;-79
2021/09/29 16:21:44;;;;;;;7.97;1.33;;;15.60;60.50;;;;;;4996016;28;20058;-78
2021/09/29 16:35:02;;;;;;;6.03;1.45;;;15.40;60.80;;;;;;5007368;28;20108;-79
2021/09/29 16:37:30;;;;;;;8.27;1.27;;;15.40;60.70;;;;;;5006365;28;20061;-80
2021/09/29 16:39:58;;;;;;;7.20;1.05;;;15.40;60.90;;;;;;4998426;28;20482;-79
2021/09/29 16:42:26;;;;;;;10.52;1.30;;;15.40;61.00;;;;;;4995910;28;20046;-79
2021/09/29 16:44:53;;;;;;;8.40;1.30;;;15.30;61.20;;;;;;4995609;28;20092;-80
2021/09/29 16:47:19;;;;;;;6.30;1.00;;;15.30;61.30;;;;;;4991253;28;20077;-79
2021/09/29 16:49:47;;;;;;;6.68;1.10;;;15.20;61.40;;;;;;4995738;28;20590;-80
2021/09/29 16:53:08;;;;;;;9.90;1.35;;;15.10;61.50;;;;;;5003789;28;20581;-79
2021/09/29 16:55:05;;;;;;;8.00;1.10;;;15.10;61.70;;;;;;5003654;28;20111;-79